Sautee Nacoochee, Georgia
Current Conditions -  °F | °C
As of 4:15 PM on Sunday 23 Nov 2014 (Local Time) from KTOC Reporting Station
Drizzle Drizzle  
Wind Chill: 51°   Ceiling: 400
Heat Index: 51°   Visibility: 2.5mi
Dew Point: 50°   Wind: 8mph
Humidity: 99%   Direction: 70°ENE
Pressure: 29.82"   Gusts: NA
Location:  34.72°N, 83.73°W
Report Text: KTOC 232115Z AUTO 07007KT 2 1/2SM DZ BKN004 OVC010 10/10 A2982 RMK AO2 T01030102
Loading
Personal Weather Stations






























Interactive Weather Map New forecast layout! Learn more

10-Day Weather Forecast

Advertisements
Track Severe Weather on mobile